Weather reports worldwide

Advertisment
Schmücke, Germany (10552): temperature & dewpoint: 07.07.2020 06:00:00 - 13.07.2020 06:00:00 (CEST)Schmücke, Germany (10552): temperature 5cm & temperature -5cm: 07.07.2020 06:00:00 - 13.07.2020 06:00:00 (CEST)Schmücke, Germany (10552): temperature -20cm & temperature -100cm: 07.07.2020 06:00:00 - 13.07.2020 06:00:00 (CEST)Schmücke, Germany (10552): wind speed & gusts: 07.07.2020 06:00:00 - 13.07.2020 06:00:00 (CEST)Schmücke, Germany (10552): wind direction: 07.07.2020 06:00:00 - 13.07.2020 06:00:00 (CEST)Schmücke, Germany (10552): visibility: 07.07.2020 06:00:00 - 13.07.2020 06:00:00 (CEST)Schmücke, Germany (10552): sunshine duration: 07.07.2020 06:00:00 - 13.07.2020 06:00:00 (CEST)Schmücke, Germany (10552): precipitation: 07.07.2020 06:00:00 - 13.07.2020 06:00:00 (CEST)
Date & Time tt [°C] td [°C] tt 5cm [°C] tt -5cm [°C] tt -20cm [°C] tt -100cm [°C] ff [km/h] ff [kn] fx [km/h] fx [kn] dd vv [km] sd [min] rr [mm]
13.07.2020 06:00:00 8,8 3,8 6,5 9,0 13,2 13,2 10 5 17 9 E 56 0 0,0
13.07.2020 05:00:00 8,5 4,1 6,4 9,3 13,5 13,2 11 6 18 10 E 74 0 0,0
13.07.2020 04:00:00 8,6 4,4 6,5 9,8 13,9 13,2 14 8 20 11 ENE 67 0 0,0
13.07.2020 03:00:00 9,0 4,4 7,1 10,2 14,3 13,2 13 7 22 12 ENE 60 0 0,0
13.07.2020 02:00:00 9,3 4,6 7,3 10,8 14,6 13,2 14 8 21 12 ENE 66 0 0,0
13.07.2020 01:00:00 9,4 4,8 7,4 11,3 15,0 13,2 14 8 22 12 ENE 65 0 0,0
13.07.2020 00:00:00 9,4 4,9 7,6 12,0 15,4 13,2 14 7 22 12 ENE 61 0 0,0
12.07.2020 23:00:00 9,6 5,0 7,9 13,0 15,8 13,2 13 7 19 10 NE 62 0 0,0
12.07.2020 22:00:00 10,2 4,8 8,1 14,2 16,1 13,2 10 5 20 11 NE 68 6 0,0
12.07.2020 21:00:00 12,0 4,8 10,1 15,9 16,2 13,3 10 5 21 11 NNE 69 60 0,0
12.07.2020 20:00:00 13,6 4,4 13,8 18,0 16,1 13,3 7 4 20 11 NNE 66 9 0,0
12.07.2020 19:00:00 14,8 4,6 15,9 20,2 15,8 13,3 10 5 21 11 N 41 49 0,0
12.07.2020 18:00:00 14,3 5,7 15,2 19,6 15,4 13,3 7 4 22 12 N 50 15 0,0
12.07.2020 17:00:00 15,3 5,3 18,6 21,3 14,9 13,3 11 6 23 13 NNE 74 46 0,0
12.07.2020 16:00:00 14,0 5,0 17,4 19,3 14,3 13,3 6 4 25 13 NE 75 10 0,0
12.07.2020 15:00:00 14,1 5,4 16,2 19,6 13,8 13,3 10 5 20 11 N 41 29 0,0
12.07.2020 14:00:00 13,4 6,3 15,9 17,0 13,4 13,3 6 4 20 11 NE 57 14 0,0
12.07.2020 13:00:00 13,0 6,6 18,0 15,5 13,1 13,3 9 5 17 9 N 63 17 0,0
12.07.2020 12:00:00 12,0 6,0 13,0 14,2 12,8 13,3 3 2 12 7 ENE 61 5 0,0
12.07.2020 11:00:00 12,0 5,7 12,8 14,3 12,5 13,3 3 2 14 8 ESE 72 17 0,0
12.07.2020 10:00:00 10,9 6,5 11,3 12,4 12,3 13,3 5 3 13 7 N 55 10 0,0
12.07.2020 09:00:00 12,0 4,9 14,8 11,6 12,2 13,3 8 5 14 7 E 75 59 0,0
12.07.2020 08:00:00 10,6 5,0 12,0 9,7 12,3 13,3 8 4 13 7 E 61 59 0,0
12.07.2020 07:00:00 8,2 4,4 6,9 8,2 12,6 13,3 8 4 10 6 E 65 55 0,0
12.07.2020 06:00:00 6,9 4,0 5,2 8,1 12,9 13,3 8 4 12 7 E 71 0 0,0
12.07.2020 05:00:00 6,5 3,6 4,3 8,5 13,3 13,3 10 6 14 8 E 69 0 0,0
12.07.2020 04:00:00 6,8 4,7 4,8 8,9 13,7 13,3 9 5 16 9 E 65 0 0,0
12.07.2020 03:00:00 6,8 4,7 4,9 9,3 14,0 13,3 11 6 16 9 ENE 54 0 0,0
12.07.2020 02:00:00 7,7 3,9 5,2 9,9 14,5 13,3 11 6 18 10 NNE 67 0 0,0
12.07.2020 01:00:00 8,5 3,7 6,1 10,5 14,9 13,3 9 5 18 10 N 75 0 0,0
12.07.2020 00:00:00 8,8 3,5 6,8 11,2 15,3 13,3 11 6 16 9 N 65 0 0,0
11.07.2020 23:00:00 9,0 3,8 6,5 12,2 15,7 13,3 11 6 18 10 N 68 0 0,0
11.07.2020 22:00:00 9,1 4,1 7,0 13,5 16,0 13,3 10 6 15 8 N 66 9 0,0
11.07.2020 21:00:00 10,6 4,6 8,7 15,3 16,2 13,3 8 4 23 12 NNE 75 57 0,0
11.07.2020 20:00:00 12,7 4,3 13,7 17,5 16,2 13,3 8 5 18 10 N 75 27 0,0
11.07.2020 19:00:00 13,0 4,4 13,4 18,6 16,0 13,3 8 4 19 11 N 52 29 0,0
11.07.2020 18:00:00 12,8 4,0 14,0 18,6 15,8 13,3 6 3 18 10 N 56 12 0,0
11.07.2020 17:00:00 12,6 4,0 13,5 19,0 15,6 13,3 8 4 20 11 N 75 6 0,0
11.07.2020 16:00:00 12,5 3,5 13,7 19,7 15,2 13,3 9 5 21 11 N 73 16 0,0
11.07.2020 15:00:00 12,4 4,0 16,8 19,0 14,7 13,3 9 5 23 12 NNE 75 16 0,0
11.07.2020 14:00:00 13,1 5,2 18,3 18,6 14,2 13,3 11 6 26 14 NNW 63 28 0,0
11.07.2020 13:00:00 11,4 4,3 13,3 17,4 13,8 13,3 12 7 26 14 N 60 23 0,0
11.07.2020 12:00:00 10,5 3,9 12,5 15,9 13,4 13,3 7 4 23 13 N 62 22 0,0
11.07.2020 11:00:00 10,3 4,9 12,3 13,8 13,3 13,3 8 5 20 11 NNE 46 11 0,0
11.07.2020 10:00:00 9,2 5,1 10,8 12,7 13,2 13,3 10 6 22 12 N 50 24 0,0
11.07.2020 09:00:00 8,2 5,7 8,4 11,1 13,3 13,3 9 5 25 13 NNE 66 43 0,0
11.07.2020 08:00:00 7,5 5,5 8,4 10,6 13,5 13,3 13 7 25 14 NNE 53 40 0,0
11.07.2020 07:00:00 6,9 5,7 6,5 10,4 13,7 13,3 13 7 24 13 N 35 4 0,0
11.07.2020 06:00:00 7,0 6,1 6,7 10,5 14,0 13,3 10 6 21 11 N 22 0 0,0
11.07.2020 05:00:00 7,4 6,4 7,3 11,0 14,2 13,3 11 6 21 12 NNE 30 0 0,0
11.07.2020 04:00:00 7,7 6,3 7,5 11,4 14,5 13,3 13 7 22 12 N 53 0 0,0
11.07.2020 03:00:00 8,2 6,6 8,0 11,9 14,7 13,3 11 6 21 12 N 68 0 0,0
11.07.2020 02:00:00 8,9 8,1 9,1 12,3 15,0 13,3 10 6 23 12 N 17 0 0,0
11.07.2020 01:00:00 9,6 8,4 9,5 12,6 15,3 13,3 9 5 21 12 NNE 37 0 0,0
11.07.2020 00:00:00 9,8 8,4 9,7 12,8 15,6 13,3 7 4 15 8 N 45 0 0,0
10.07.2020 23:00:00 9,9 7,7 9,2 13,2 15,9 13,3 9 5 22 12 N 54 0 0,0
10.07.2020 22:00:00 10,3 7,6 9,8 14,1 16,2 13,3 8 5 24 13 N 57 0 0,0
10.07.2020 21:00:00 11,5 8,3 10,9 15,3 16,4 13,3 8 4 18 10 NW 68 0 0,0
10.07.2020 20:00:00 12,6 9,9 12,5 16,3 16,5 13,3 10 6 27 14 WNW 42 0 0,0
10.07.2020 19:00:00 13,8 9,7 14,3 17,0 16,6 13,4 13 7 45 25 W 52 0 0,0
10.07.2020 18:00:00 15,6 9,4 15,9 18,3 16,5 13,4 26 14 51 28 W 62 7 0,0
10.07.2020 17:00:00 16,1 10,3 16,7 18,5 16,5 13,4 27 15 52 28 WSW 39 2 0,0
10.07.2020 16:00:00 17,4 9,9 18,2 19,1 16,4 13,4 28 15 61 33 WSW 68 9 0,0
10.07.2020 15:00:00 17,0 10,4 17,8 18,9 16,2 13,4 30 16 55 30 SW 49 1 0,0
10.07.2020 14:00:00 16,9 11,9 16,9 19,6 15,9 13,4 34 18 60 32 SW 54 12 0,0
10.07.2020 13:00:00 17,3 11,8 17,9 20,2 15,4 13,4 35 19 69 37 SW 53 27 0,0
10.07.2020 12:00:00 18,7 12,4 21,3 20,5 14,9 13,4 40 22 68 37 SW 75 59 0,0
10.07.2020 11:00:00 17,5 12,4 19,2 17,7 14,5 13,4 38 20 59 32 SW 74 24 0,0
10.07.2020 10:00:00 17,9 12,1 18,8 16,5 14,3 13,4 30 16 62 33 SW 67 39 0,0
10.07.2020 09:00:00 16,5 11,4 17,2 14,9 14,2 13,4 31 17 58 31 SW 47 37 0,0
10.07.2020 08:00:00 15,9 11,0 15,4 13,9 14,2 13,4 29 16 51 28 SSW 52 13 0,0
10.07.2020 07:00:00 16,0 10,8 15,4 13,3 14,3 13,4 29 16 46 25 SSW 48 33 0,0
10.07.2020 06:00:00 15,5 10,9 14,2 13,0 14,5 13,4 16 9 33 18 SSW 62 0 0,0
10.07.2020 05:00:00 15,6 11,0 14,2 13,2 14,6 13,4 14 7 27 14 SSW 70 0 0,0
10.07.2020 04:00:00 15,4 10,9 14,2 13,6 14,7 13,5 10 5 21 11 SSW 63 0 0,0
10.07.2020 03:00:00 15,0 12,1 13,7 13,8 14,9 13,5 9 5 14 8 SW 58 0 0,0
10.07.2020 02:00:00 14,8 12,4 13,4 13,9 15,0 13,5 9 5 21 11 WSW 65 0 0,0
10.07.2020 01:00:00 14,5 12,2 12,7 14,1 15,2 13,5 10 6 21 12 WSW 50 0 0,0
10.07.2020 00:00:00 15,3 12,2 13,5 14,7 15,3 13,5 12 6 19 10 WSW 69 0 0,0
09.07.2020 23:00:00 15,6 12,7 14,6 15,1 15,4 13,5 14 7 22 12 WSW 56 0 0,0
09.07.2020 22:00:00 15,5 12,7 14,1 15,8 15,4 13,5 15 8 25 13 WSW 64 0 0,0
09.07.2020 21:00:00 16,7 13,0 16,1 16,8 15,4 13,5 16 9 27 14 W 63 1 0,0
09.07.2020 20:00:00 17,8 13,6 17,6 17,7 15,2 13,5 13 7 27 15 SW 67 4 0,0
09.07.2020 19:00:00 17,8 13,3 17,8 18,5 14,8 13,5 19 10 40 21 SW 65 15 0,0
09.07.2020 18:00:00 18,4 13,3 19,7 19,5 14,3 13,5 27 15 48 26 SSW 57 42 0,0
09.07.2020 17:00:00 17,9 13,0 19,3 18,5 13,9 13,5 29 15 53 29 SW 48 28 0,0
09.07.2020 16:00:00 16,1 13,2 16,1 17,7 13,5 13,6 26 14 49 26 SW 43 30 0,0
09.07.2020 15:00:00 14,9 14,3 15,4 15,1 13,3 13,6 34 18 53 28 SSW 33 2 0,0
09.07.2020 14:00:00 14,2 14,1 14,6 14,0 13,2 13,6 25 13 49 26 SW 0,2 0 0,0
09.07.2020 13:00:00 13,4 13,3 13,7 13,4 13,0 13,6 27 15 45 24 SW 0,1 0 0,0
09.07.2020 12:00:00 12,8 12,7 13,0 12,9 13,0 13,6 24 13 40 22 SW 0,1 0 0,0
09.07.2020 11:00:00 12,3 12,2 12,6 12,5 12,9 13,6 23 13 42 23 SW 0,1 0 0,4
09.07.2020 10:00:00 11,8 11,7 12,0 12,1 12,9 13,6 23 12 37 20 SW 0,1 0 2,0
09.07.2020 09:00:00 11,2 11,1 11,4 11,8 12,9 13,6 20 11 33 18 SW 0,2 0 1,3
09.07.2020 08:00:00 10,8 10,7 10,9 11,6 13,0 13,6 18 10 33 18 SW 0,1 0 2,2
09.07.2020 07:00:00 10,3 10,2 10,6 11,3 13,1 13,6 16 9 27 15 SW 0,2 0 2,0
09.07.2020 06:00:00 9,9 9,7 10,0 11,2 13,1 13,6 20 11 35 19 SSW 0,2 0 2,0
09.07.2020 05:00:00 9,5 9,3 9,6 11,3 13,2 13,6 19 10 32 17 SSW 0,1 0 0,5
09.07.2020 04:00:00 9,6 9,4 9,7 11,4 13,3 13,6 21 11 34 18 SW 0,1 0 0,1
09.07.2020 03:00:00 9,6 9,4 9,7 11,5 13,4 13,6 18 10 29 16 SW 0,1 0 0,0
09.07.2020 02:00:00 9,6 9,4 9,7 11,6 13,5 13,6 16 9 25 14 SW 0,1 0 0,0
09.07.2020 01:00:00 9,6 9,4 9,7 11,7 13,6 13,6 16 9 23 13 SW 0,1 0 0,0
09.07.2020 00:00:00 9,5 9,4 9,7 11,8 13,7 13,6 13 7 18 10 SW 0,1 0 0,0
08.07.2020 23:00:00 9,4 9,2 9,6 11,9 13,8 13,6 5 3 14 8 SW 0,3 0 0,0
08.07.2020 22:00:00 9,5 9,2 9,6 12,2 13,8 13,6 7 4 22 12 WSW 1,2 0 0,0
08.07.2020 21:00:00 9,7 9,5 10,1 12,5 13,9 13,6 11 6 22 12 W 0,2 0 0,0
08.07.2020 20:00:00 9,8 9,6 10,4 12,8 13,9 13,6 14 8 25 13 WSW 0,1 0 0,0
08.07.2020 19:00:00 9,8 9,6 10,2 12,7 14,0 13,6 11 6 22 12 WSW 0,2 0 0,0
08.07.2020 18:00:00 9,6 9,5 10,2 12,7 14,0 13,6 13 7 28 15 WSW 0,1 0 0,0
08.07.2020 17:00:00 9,5 9,4 10,0 12,8 14,0 13,6 14 8 37 20 SW 0,1 0 0,3
08.07.2020 16:00:00 9,3 9,3 9,9 12,8 14,0 13,6 22 12 36 19 SW 0,1 0 0,8
08.07.2020 15:00:00 9,1 8,9 9,7 12,8 14,1 13,6 23 12 41 22 SW 0,1 0 0,8
08.07.2020 14:00:00 8,8 8,6 9,6 12,6 14,1 13,6 23 12 37 20 SW 0,1 0 0,2
08.07.2020 13:00:00 8,6 8,4 9,4 12,7 14,2 13,6 22 12 35 19 SW 0,1 0 0,0
08.07.2020 12:00:00 8,3 8,0 9,1 12,7 14,2 13,6 21 11 38 20 SW 0,1 0 0,6
08.07.2020 11:00:00 8,1 7,9 9,1 12,4 14,3 13,6 21 11 36 19 WSW 0,3 0 0,7
08.07.2020 10:00:00 7,8 7,6 8,7 11,7 14,5 13,6 19 11 36 19 WSW 0,2 0 0,6
08.07.2020 09:00:00 7,8 7,1 8,1 12,0 14,7 13,6 14 8 29 15 SW 13 0 0,2
08.07.2020 08:00:00 8,0 6,8 7,9 12,1 14,9 13,7 17 9 24 13 SW 13 0 0,3
08.07.2020 07:00:00 8,5 7,0 8,3 12,3 15,1 13,7 14 7 20 11 SW 51 0 0,0
08.07.2020 06:00:00 8,3 7,4 8,2 12,5 15,3 13,7 9 5 13 7 SW 31 0 0,4
08.07.2020 05:00:00 9,0 7,5 8,3 12,8 15,5 13,7 6 4 13 7 SW 13 0 0,3
08.07.2020 04:00:00 9,5 6,7 9,3 13,1 15,8 13,7 7 4 15 8 W 48 0 0,0
08.07.2020 03:00:00 9,5 6,1 9,0 13,5 16,0 13,7 6 4 10 5 WNW 27 0 0,0
08.07.2020 02:00:00 9,8 6,7 9,2 13,8 16,3 13,7 4 2 15 8 WNW 51 0 0,0
08.07.2020 01:00:00 10,0 5,0 9,9 14,3 16,5 13,7 10 6 16 8 W 67 0 0,0
08.07.2020 00:00:00 10,3 5,0 10,1 14,7 16,8 13,7 11 6 17 9 WSW 61 0 0,0
07.07.2020 23:00:00 10,5 5,0 10,2 15,3 17,1 13,7 11 6 18 10 WSW 72 0 0,0
07.07.2020 22:00:00 10,6 4,6 10,2 16,0 17,4 13,7 10 5 26 14 WSW 75 0 0,0
07.07.2020 21:00:00 11,2 4,6 10,5 17,5 17,5 13,7 14 8 29 16 WSW 75 10 0,0
07.07.2020 20:00:00 12,9 4,1 13,5 19,3 17,4 13,7 15 8 33 18 SW 59 56 0,0
07.07.2020 19:00:00 13,2 4,4 15,4 19,9 17,3 13,7 16 9 32 17 WSW 65 26 0,0
07.07.2020 18:00:00 13,0 4,1 14,1 20,1 17,1 13,7 13 7 26 14 WSW 58 7 0,0
07.07.2020 17:00:00 12,7 4,0 14,4 20,7 16,8 13,7 12 6 22 12 W 69 7 0,0
07.07.2020 16:00:00 12,8 3,9 14,4 21,7 16,3 13,7 13 7 33 18 WSW 55 9 0,0
07.07.2020 15:00:00 13,4 4,5 19,1 22,5 15,7 13,7 16 8 37 20 SW 57 37 0,0
07.07.2020 14:00:00 11,5 4,5 13,9 20,4 15,1 13,7 12 6 34 18 WSW 43 17 0,0
07.07.2020 13:00:00 11,2 5,1 17,4 19,9 14,4 13,7 11 6 29 16 W 73 31 0,0
07.07.2020 12:00:00 10,0 5,2 11,5 18,2 13,9 13,7 13 7 28 15 WSW 50 34 0,0
07.07.2020 11:00:00 10,0 4,9 12,1 15,9 13,5 13,7 13 7 31 17 SW 44 37 0,0
07.07.2020 10:00:00 8,7 5,9 11,5 13,2 13,4 13,7 12 7 23 12 SW 38 19 0,0
07.07.2020 09:00:00 7,8 6,0 9,9 12,1 13,4 13,7 10 5 18 10 WSW 40 10 0,0
07.07.2020 08:00:00 6,8 6,2 8,0 10,6 13,5 13,7 8 5 16 9 WSW 12 0 0,0
07.07.2020 07:00:00 6,3 5,7 6,6 9,9 13,7 13,7 7 4 14 8 W 17 0 0,0
07.07.2020 06:00:00 5,8 5,2 5,9 9,5 14,0 13,7 8 5 17 9 WNW 25 0 0,0

tt = temperature
td = dewpoint
tt 5cm = temperature 5cm
tt -5cm = temperature -5cm
tt -20cm = temperature -20cm
tt -100cm = temperature -100cm
ff = wind speed
fx = gusts
dd = wind direction
vv = visibility
sd = sunshine duration
rr = precipitation

Next stations